Tar Heel, North Carolina
Current Conditions -  °F | °C
As of 12:15 AM on Sunday 21 Dec 2014 (Local Time) from KEYF Reporting Station
Haze Haze  
Wind Chill: 37°   Ceiling: 6500
Heat Index: 37°   Visibility: 3mi
Dew Point: 37°   Wind: 3mph
Humidity: 100%   Direction: 20°NNE
Pressure: 30.26"   Gusts: NA
Location:  34.73°N, 78.79°W
Report Text: KEYF 210515Z AUTO 02003KT 3SM BR OVC065 03/03 A3026 RMK AO2 T00300030
Loading
Personal Weather Stations






























Interactive Weather Map New forecast layout! Learn more

10-Day Weather Forecast

Advertisements
Track Severe Weather on mobile